createdAt,value
2023-03-22T00:00:34.960Z,931.3
2023-03-22T00:15:37.008Z,931.3
2023-03-22T00:30:37.423Z,931
2023-03-22T00:45:36.692Z,930.8
2023-03-22T01:00:43.219Z,930.8
2023-03-22T01:15:37.906Z,930.3
2023-03-22T01:30:39.902Z,930.2
2023-03-22T01:45:47.415Z,930.2
2023-03-22T02:00:40.916Z,930.3
2023-03-22T02:01:31.154Z,930.3
2023-03-22T02:15:42.218Z,930.3
2023-03-22T02:30:41.719Z,930
2023-03-22T02:45:40.780Z,929.9
2023-03-22T03:00:43.353Z,930
2023-03-22T03:15:42.116Z,930
2023-03-22T03:30:41.940Z,930.1
2023-03-22T03:45:44.150Z,930.2
2023-03-22T04:00:47.548Z,930.2
2023-03-22T04:15:47.663Z,930.1
2023-03-22T04:30:49.901Z,930.2
2023-03-22T04:46:11.614Z,930.3
2023-03-22T05:00:45.724Z,930.3
2023-03-22T05:10:05.743Z,930.3
2023-03-22T05:24:58.376Z,930.2
2023-03-22T05:40:25.300Z,930.3
2023-03-22T05:55:15.670Z,930.4
2023-03-22T06:09:59.261Z,930.5
2023-03-22T06:40:01.234Z,930.3
2023-03-22T06:55:01.550Z,930.3
2023-03-22T07:09:59.285Z,930.3
2023-03-22T07:25:02.384Z,930.4
2023-03-22T07:40:03.296Z,930.4
2023-03-22T07:55:01.772Z,930.5
2023-03-22T08:10:16.435Z,930.5
2023-03-22T08:25:02.657Z,930.5
2023-03-22T08:40:03.321Z,930.3
2023-03-22T08:55:15.312Z,930.3
2023-03-22T09:10:04.085Z,930.3
2023-03-22T09:25:13.960Z,930.3
2023-03-22T09:40:32.485Z,930.1
2023-03-22T09:55:05.664Z,929.8
2023-03-22T10:10:06.185Z,929.7
2023-03-22T10:25:15.660Z,929.7
2023-03-22T10:40:17.133Z,929.5
2023-03-22T10:55:15.440Z,929.4
2023-03-22T11:10:08.367Z,929.4
2023-03-22T11:25:16.611Z,929.4
2023-03-22T11:40:08.832Z,929.2
2023-03-22T11:55:18.210Z,929.1
2023-03-22T12:10:18.849Z,929.1
2023-03-22T12:25:11.319Z,928.7
2023-03-22T12:40:11.352Z,928.5
2023-03-22T12:55:11.973Z,928.4
2023-03-22T13:10:21.216Z,928.4
2023-03-22T13:25:20.416Z,928.2
2023-03-22T13:40:23.153Z,928.1
2023-03-22T13:55:21.516Z,927.9
2023-03-22T14:10:22.673Z,927.8
2023-03-22T14:55:49.251Z,927.8
2023-03-22T15:10:16.249Z,927.7
2023-03-22T15:25:17.809Z,927.7
2023-03-22T15:40:26.247Z,927.7
2023-03-22T15:55:23.844Z,927.8
2023-03-22T16:10:24.836Z,927.8
2023-03-22T16:25:24.085Z,927.7
2023-03-22T16:40:26.632Z,928
2023-03-22T16:55:25.116Z,928
2023-03-22T17:10:25.230Z,928
2023-03-22T17:25:25.617Z,928.1
2023-03-22T17:41:03.004Z,927.9
2023-03-22T18:10:28.520Z,928.1
2023-03-22T18:25:44.253Z,928.3
2023-03-22T19:25:28.698Z,928.4
2023-03-22T19:55:29.070Z,928.4
2023-03-22T20:10:31.843Z,928.5
2023-03-22T20:40:45.705Z,928.5
2023-03-22T20:55:42.768Z,928.4
2023-03-22T21:10:32.432Z,928.5
2023-03-22T21:25:35.554Z,928.5
2023-03-22T21:40:33.472Z,928.5
2023-03-22T21:55:31.197Z,928.5
2023-03-22T22:10:33.215Z,928.5
2023-03-22T22:40:34.270Z,928.3
2023-03-22T22:55:33.695Z,928.3
2023-03-22T23:00:45.412Z,928.3
2023-03-22T23:15:35.920Z,928.2
2023-03-22T23:30:37.944Z,928.2
2023-03-22T23:45:50.560Z,928.3
